sensor_id;sensor_type;location;lat;lon;timestamp;temperature;humidity
54168;DHT22;40072;50.958;3.592;2022-12-07T00:01:41;6.40;99.90
54168;DHT22;40072;50.958;3.592;2022-12-07T00:04:11;6.40;99.90
54168;DHT22;40072;50.958;3.592;2022-12-07T00:06:39;6.40;99.90
54168;DHT22;40072;50.958;3.592;2022-12-07T00:09:07;6.70;99.90
54168;DHT22;40072;50.958;3.592;2022-12-07T00:11:33;6.40;99.90
54168;DHT22;40072;50.958;3.592;2022-12-07T00:14:01;6.30;99.90
54168;DHT22;40072;50.958;3.592;2022-12-07T00:16:31;6.40;99.90
54168;DHT22;40072;50.958;3.592;2022-12-07T00:18:57;6.20;99.90
54168;DHT22;40072;50.958;3.592;2022-12-07T00:21:29;6.10;99.90
54168;DHT22;40072;50.958;3.592;2022-12-07T00:23:55;6.10;99.90
54168;DHT22;40072;50.958;3.592;2022-12-07T00:26:25;5.90;99.90
54168;DHT22;40072;50.958;3.592;2022-12-07T00:28:52;5.80;99.90
54168;DHT22;40072;50.958;3.592;2022-12-07T00:31:20;5.60;99.90
54168;DHT22;40072;50.958;3.592;2022-12-07T00:33:46;5.50;99.90
54168;DHT22;40072;50.958;3.592;2022-12-07T00:36:17;5.40;99.90
54168;DHT22;40072;50.958;3.592;2022-12-07T00:38:43;5.30;99.90
54168;DHT22;40072;50.958;3.592;2022-12-07T00:41:14;5.10;99.90
54168;DHT22;40072;50.958;3.592;2022-12-07T00:43:41;5.00;99.90
54168;DHT22;40072;50.958;3.592;2022-12-07T00:46:08;5.10;99.90
54168;DHT22;40072;50.958;3.592;2022-12-07T00:48:34;5.10;99.90
54168;DHT22;40072;50.958;3.592;2022-12-07T00:51:00;5.10;99.90
54168;DHT22;40072;50.958;3.592;2022-12-07T00:53:26;4.90;99.90
54168;DHT22;40072;50.958;3.592;2022-12-07T00:55:52;5.00;99.90
54168;DHT22;40072;50.958;3.592;2022-12-07T00:58:18;4.90;99.90
54168;DHT22;40072;50.958;3.592;2022-12-07T01:00:44;4.90;99.90
54168;DHT22;40072;50.958;3.592;2022-12-07T01:03:12;4.70;99.90
54168;DHT22;40072;50.958;3.592;2022-12-07T01:05:38;4.70;99.90
54168;DHT22;40072;50.958;3.592;2022-12-07T01:08:03;4.60;99.90
54168;DHT22;40072;50.958;3.592;2022-12-07T01:10:29;4.60;99.90
54168;DHT22;40072;50.958;3.592;2022-12-07T01:12:57;4.60;99.90
54168;DHT22;40072;50.958;3.592;2022-12-07T01:15:23;4.60;99.90
54168;DHT22;40072;50.958;3.592;2022-12-07T01:17:49;4.60;99.90
54168;DHT22;40072;50.958;3.592;2022-12-07T01:20:15;4.50;99.90
54168;DHT22;40072;50.958;3.592;2022-12-07T01:22:42;4.40;99.90
54168;DHT22;40072;50.958;3.592;2022-12-07T01:25:09;4.30;99.90
54168;DHT22;40072;50.958;3.592;2022-12-07T01:27:35;4.40;99.90
54168;DHT22;40072;50.958;3.592;2022-12-07T01:30:03;4.40;99.90
54168;DHT22;40072;50.958;3.592;2022-12-07T01:32:29;4.40;99.90
54168;DHT22;40072;50.958;3.592;2022-12-07T01:34:55;4.30;99.90
54168;DHT22;40072;50.958;3.592;2022-12-07T01:37:21;4.30;99.90
54168;DHT22;40072;50.958;3.592;2022-12-07T01:39:51;4.60;99.90
54168;DHT22;40072;50.958;3.592;2022-12-07T01:42:17;4.50;99.90
54168;DHT22;40072;50.958;3.592;2022-12-07T01:47:47;4.40;99.90
54168;DHT22;40072;50.958;3.592;2022-12-07T01:50:14;4.50;99.90
54168;DHT22;40072;50.958;3.592;2022-12-07T01:52:42;4.40;99.90
54168;DHT22;40072;50.958;3.592;2022-12-07T01:55:12;4.40;99.90
54168;DHT22;40072;50.958;3.592;2022-12-07T01:57:42;4.30;99.90
54168;DHT22;40072;50.958;3.592;2022-12-07T02:00:10;4.40;99.90
54168;DHT22;40072;50.958;3.592;2022-12-07T02:02:52;4.60;99.90
54168;DHT22;40072;50.958;3.592;2022-12-07T02:05:18;4.70;99.90
54168;DHT22;40072;50.958;3.592;2022-12-07T02:07:46;4.80;99.90
54168;DHT22;40072;50.958;3.592;2022-12-07T02:10:21;5.00;99.90
54168;DHT22;40072;50.958;3.592;2022-12-07T02:12:54;5.00;99.90
54168;DHT22;40072;50.958;3.592;2022-12-07T02:15:22;5.00;99.90
54168;DHT22;40072;50.958;3.592;2022-12-07T02:18:25;5.10;99.90
54168;DHT22;40072;50.958;3.592;2022-12-07T02:21:02;5.00;99.90
54168;DHT22;40072;50.958;3.592;2022-12-07T02:32:00;4.60;99.90
54168;DHT22;40072;50.958;3.592;2022-12-07T02:40:09;4.40;99.90
54168;DHT22;40072;50.958;3.592;2022-12-07T02:42:45;4.30;99.90
54168;DHT22;40072;50.958;3.592;2022-12-07T02:45:13;4.40;99.90
54168;DHT22;40072;50.958;3.592;2022-12-07T02:47:40;4.50;99.90
54168;DHT22;40072;50.958;3.592;2022-12-07T02:50:07;4.60;99.90
54168;DHT22;40072;50.958;3.592;2022-12-07T02:52:33;4.60;99.90
54168;DHT22;40072;50.958;3.592;2022-12-07T02:54:59;4.60;99.90
54168;DHT22;40072;50.958;3.592;2022-12-07T03:00:20;4.60;99.90
54168;DHT22;40072;50.958;3.592;2022-12-07T03:03:18;4.70;99.90
54168;DHT22;40072;50.958;3.592;2022-12-07T03:08:57;4.70;99.90
54168;DHT22;40072;50.958;3.592;2022-12-07T03:11:33;4.70;99.90
54168;DHT22;40072;50.958;3.592;2022-12-07T03:14:21;4.60;99.90
54168;DHT22;40072;50.958;3.592;2022-12-07T03:17:02;4.70;99.90
54168;DHT22;40072;50.958;3.592;2022-12-07T03:19:31;5.00;99.90
54168;DHT22;40072;50.958;3.592;2022-12-07T03:22:02;4.80;99.90
54168;DHT22;40072;50.958;3.592;2022-12-07T03:24:41;4.70;99.90
54168;DHT22;40072;50.958;3.592;2022-12-07T03:27:18;4.70;99.90
54168;DHT22;40072;50.958;3.592;2022-12-07T03:29:52;4.80;99.90
54168;DHT22;40072;50.958;3.592;2022-12-07T03:32:48;4.70;99.90
54168;DHT22;40072;50.958;3.592;2022-12-07T03:35:23;4.70;99.90
54168;DHT22;40072;50.958;3.592;2022-12-07T03:37:57;4.80;99.90
54168;DHT22;40072;50.958;3.592;2022-12-07T03:40:40;4.70;99.90
54168;DHT22;40072;50.958;3.592;2022-12-07T03:43:09;4.70;99.90
54168;DHT22;40072;50.958;3.592;2022-12-07T03:45:42;4.70;99.90
54168;DHT22;40072;50.958;3.592;2022-12-07T03:51:13;4.70;99.90
54168;DHT22;40072;50.958;3.592;2022-12-07T03:53:44;4.70;99.90
54168;DHT22;40072;50.958;3.592;2022-12-07T03:56:12;4.70;99.90
54168;DHT22;40072;50.958;3.592;2022-12-07T03:58:40;4.50;99.90
54168;DHT22;40072;50.958;3.592;2022-12-07T04:01:06;4.50;99.90
54168;DHT22;40072;50.958;3.592;2022-12-07T04:03:32;4.50;99.90
54168;DHT22;40072;50.958;3.592;2022-12-07T04:05:57;4.40;99.90
54168;DHT22;40072;50.958;3.592;2022-12-07T04:08:24;4.20;99.90
54168;DHT22;40072;50.958;3.592;2022-12-07T04:10:50;4.10;99.90
54168;DHT22;40072;50.958;3.592;2022-12-07T04:13:16;4.10;99.90
54168;DHT22;40072;50.958;3.592;2022-12-07T04:15:41;4.00;99.90
54168;DHT22;40072;50.958;3.592;2022-12-07T04:18:07;4.10;99.90
54168;DHT22;40072;50.958;3.592;2022-12-07T04:20:33;4.20;99.90
54168;DHT22;40072;50.958;3.592;2022-12-07T04:22:58;4.10;99.90
54168;DHT22;40072;50.958;3.592;2022-12-07T04:25:24;4.00;99.90
54168;DHT22;40072;50.958;3.592;2022-12-07T04:27:50;3.90;99.90
54168;DHT22;40072;50.958;3.592;2022-12-07T04:30:15;3.80;99.90
54168;DHT22;40072;50.958;3.592;2022-12-07T04:32:41;3.70;99.90
54168;DHT22;40072;50.958;3.592;2022-12-07T04:35:07;3.60;99.90
54168;DHT22;40072;50.958;3.592;2022-12-07T04:37:33;3.50;99.90
54168;DHT22;40072;50.958;3.592;2022-12-07T04:39:58;3.50;99.90
54168;DHT22;40072;50.958;3.592;2022-12-07T04:42:24;3.60;99.90
54168;DHT22;40072;50.958;3.592;2022-12-07T04:44:50;3.60;99.90
54168;DHT22;40072;50.958;3.592;2022-12-07T04:47:16;3.60;99.90
54168;DHT22;40072;50.958;3.592;2022-12-07T04:49:42;3.70;99.90
54168;DHT22;40072;50.958;3.592;2022-12-07T04:52:08;3.50;99.90
54168;DHT22;40072;50.958;3.592;2022-12-07T04:54:34;3.50;99.90
54168;DHT22;40072;50.958;3.592;2022-12-07T04:57:00;3.40;99.90
54168;DHT22;40072;50.958;3.592;2022-12-07T04:59:25;3.30;99.90
54168;DHT22;40072;50.958;3.592;2022-12-07T05:01:51;3.50;99.90
54168;DHT22;40072;50.958;3.592;2022-12-07T05:04:17;3.60;99.90
54168;DHT22;40072;50.958;3.592;2022-12-07T05:06:43;3.70;99.90
54168;DHT22;40072;50.958;3.592;2022-12-07T05:09:09;3.80;99.90
54168;DHT22;40072;50.958;3.592;2022-12-07T05:11:35;4.00;99.90
54168;DHT22;40072;50.958;3.592;2022-12-07T05:14:09;4.10;99.90
54168;DHT22;40072;50.958;3.592;2022-12-07T05:16:35;4.20;99.90
54168;DHT22;40072;50.958;3.592;2022-12-07T05:19:01;4.30;99.90
54168;DHT22;40072;50.958;3.592;2022-12-07T05:21:26;4.30;99.90
54168;DHT22;40072;50.958;3.592;2022-12-07T05:23:52;4.40;99.90
54168;DHT22;40072;50.958;3.592;2022-12-07T05:26:18;4.30;99.90
54168;DHT22;40072;50.958;3.592;2022-12-07T05:28:44;4.50;99.90
54168;DHT22;40072;50.958;3.592;2022-12-07T05:31:09;4.40;99.90
54168;DHT22;40072;50.958;3.592;2022-12-07T05:33:35;4.40;99.90
54168;DHT22;40072;50.958;3.592;2022-12-07T05:36:01;4.30;99.90
54168;DHT22;40072;50.958;3.592;2022-12-07T05:38:31;4.40;99.90
54168;DHT22;40072;50.958;3.592;2022-12-07T05:41:03;4.30;99.90
54168;DHT22;40072;50.958;3.592;2022-12-07T05:43:30;4.30;99.90
54168;DHT22;40072;50.958;3.592;2022-12-07T05:45:56;4.30;99.90
54168;DHT22;40072;50.958;3.592;2022-12-07T05:48:22;4.20;99.90
54168;DHT22;40072;50.958;3.592;2022-12-07T05:50:48;4.10;99.90
54168;DHT22;40072;50.958;3.592;2022-12-07T05:53:14;4.00;99.90
54168;DHT22;40072;50.958;3.592;2022-12-07T05:55:40;3.90;99.90
54168;DHT22;40072;50.958;3.592;2022-12-07T05:58:06;3.70;99.90
54168;DHT22;40072;50.958;3.592;2022-12-07T06:00:49;3.60;99.90
54168;DHT22;40072;50.958;3.592;2022-12-07T06:03:15;3.60;99.90
54168;DHT22;40072;50.958;3.592;2022-12-07T06:05:41;3.70;99.90
54168;DHT22;40072;50.958;3.592;2022-12-07T06:08:07;3.60;99.90
54168;DHT22;40072;50.958;3.592;2022-12-07T06:10:33;3.60;99.90
54168;DHT22;40072;50.958;3.592;2022-12-07T06:12:58;3.60;99.90
54168;DHT22;40072;50.958;3.592;2022-12-07T06:15:24;3.50;99.90
54168;DHT22;40072;50.958;3.592;2022-12-07T06:17:50;3.50;99.90
54168;DHT22;40072;50.958;3.592;2022-12-07T06:20:15;3.60;99.90
54168;DHT22;40072;50.958;3.592;2022-12-07T06:22:41;3.70;99.90
54168;DHT22;40072;50.958;3.592;2022-12-07T06:25:07;3.90;99.90
54168;DHT22;40072;50.958;3.592;2022-12-07T06:27:33;4.10;99.90
54168;DHT22;40072;50.958;3.592;2022-12-07T06:29:59;4.10;99.90
54168;DHT22;40072;50.958;3.592;2022-12-07T06:32:25;4.20;99.90
54168;DHT22;40072;50.958;3.592;2022-12-07T06:34:50;4.20;99.90
54168;DHT22;40072;50.958;3.592;2022-12-07T06:37:16;4.20;99.90
54168;DHT22;40072;50.958;3.592;2022-12-07T06:39:42;4.10;99.90
54168;DHT22;40072;50.958;3.592;2022-12-07T06:42:07;3.90;99.90
54168;DHT22;40072;50.958;3.592;2022-12-07T06:44:33;3.80;99.90
54168;DHT22;40072;50.958;3.592;2022-12-07T06:46:59;3.60;99.90
54168;DHT22;40072;50.958;3.592;2022-12-07T06:49:24;3.60;99.90
54168;DHT22;40072;50.958;3.592;2022-12-07T06:51:50;3.60;99.90
54168;DHT22;40072;50.958;3.592;2022-12-07T06:54:16;3.70;99.90
54168;DHT22;40072;50.958;3.592;2022-12-07T06:56:42;3.70;99.90
54168;DHT22;40072;50.958;3.592;2022-12-07T06:59:08;4.10;99.90
54168;DHT22;40072;50.958;3.592;2022-12-07T07:01:34;4.20;99.90
54168;DHT22;40072;50.958;3.592;2022-12-07T07:04:01;4.30;99.90
54168;DHT22;40072;50.958;3.592;2022-12-07T07:06:27;4.30;99.90
54168;DHT22;40072;50.958;3.592;2022-12-07T07:08:52;4.20;99.90
54168;DHT22;40072;50.958;3.592;2022-12-07T07:11:18;4.30;99.90
54168;DHT22;40072;50.958;3.592;2022-12-07T07:13:45;4.50;99.90
54168;DHT22;40072;50.958;3.592;2022-12-07T07:16:10;4.70;99.90
54168;DHT22;40072;50.958;3.592;2022-12-07T07:18:36;4.80;99.90
54168;DHT22;40072;50.958;3.592;2022-12-07T07:21:03;4.70;99.90
54168;DHT22;40072;50.958;3.592;2022-12-07T07:23:29;4.60;99.90
54168;DHT22;40072;50.958;3.592;2022-12-07T07:25:55;4.40;99.90
54168;DHT22;40072;50.958;3.592;2022-12-07T07:28:20;4.20;99.90
54168;DHT22;40072;50.958;3.592;2022-12-07T07:30:46;4.30;99.90
54168;DHT22;40072;50.958;3.592;2022-12-07T07:33:12;4.20;99.90
54168;DHT22;40072;50.958;3.592;2022-12-07T07:35:38;4.40;99.90
54168;DHT22;40072;50.958;3.592;2022-12-07T07:38:04;4.30;99.90
54168;DHT22;40072;50.958;3.592;2022-12-07T07:40:30;4.30;99.90
54168;DHT22;40072;50.958;3.592;2022-12-07T07:42:57;4.40;99.90
54168;DHT22;40072;50.958;3.592;2022-12-07T07:45:24;4.60;99.90
54168;DHT22;40072;50.958;3.592;2022-12-07T07:47:50;4.80;99.90
54168;DHT22;40072;50.958;3.592;2022-12-07T07:50:16;4.60;99.90
54168;DHT22;40072;50.958;3.592;2022-12-07T07:52:42;4.60;99.90
54168;DHT22;40072;50.958;3.592;2022-12-07T07:55:09;4.80;99.90
54168;DHT22;40072;50.958;3.592;2022-12-07T07:57:35;4.90;99.90
54168;DHT22;40072;50.958;3.592;2022-12-07T08:00:05;4.70;99.90
54168;DHT22;40072;50.958;3.592;2022-12-07T08:02:32;4.70;99.90
54168;DHT22;40072;50.958;3.592;2022-12-07T08:04:57;4.90;99.90
54168;DHT22;40072;50.958;3.592;2022-12-07T08:07:23;5.00;99.90
54168;DHT22;40072;50.958;3.592;2022-12-07T08:09:48;4.90;99.90
54168;DHT22;40072;50.958;3.592;2022-12-07T08:12:14;4.80;99.90
54168;DHT22;40072;50.958;3.592;2022-12-07T08:14:40;5.10;99.90
54168;DHT22;40072;50.958;3.592;2022-12-07T08:17:06;5.10;99.90
54168;DHT22;40072;50.958;3.592;2022-12-07T08:19:33;5.10;99.90
54168;DHT22;40072;50.958;3.592;2022-12-07T08:21:58;5.10;99.90
54168;DHT22;40072;50.958;3.592;2022-12-07T08:24:24;5.20;99.90
54168;DHT22;40072;50.958;3.592;2022-12-07T08:26:50;5.20;99.90
54168;DHT22;40072;50.958;3.592;2022-12-07T08:29:16;5.30;99.90
54168;DHT22;40072;50.958;3.592;2022-12-07T08:31:42;5.20;99.90
54168;DHT22;40072;50.958;3.592;2022-12-07T08:34:10;5.30;99.90
54168;DHT22;40072;50.958;3.592;2022-12-07T08:36:36;5.70;99.90
54168;DHT22;40072;50.958;3.592;2022-12-07T08:39:02;6.40;99.90
54168;DHT22;40072;50.958;3.592;2022-12-07T08:41:28;6.80;99.90
54168;DHT22;40072;50.958;3.592;2022-12-07T08:43:53;6.50;99.90
54168;DHT22;40072;50.958;3.592;2022-12-07T08:49:05;6.40;99.90
54168;DHT22;40072;50.958;3.592;2022-12-07T08:51:33;6.30;99.90
54168;DHT22;40072;50.958;3.592;2022-12-07T08:54:01;6.30;99.90
54168;DHT22;40072;50.958;3.592;2022-12-07T08:56:29;6.20;99.90
54168;DHT22;40072;50.958;3.592;2022-12-07T08:58:55;6.40;99.90
54168;DHT22;40072;50.958;3.592;2022-12-07T09:01:20;6.60;99.90
54168;DHT22;40072;50.958;3.592;2022-12-07T09:03:46;6.80;99.90
54168;DHT22;40072;50.958;3.592;2022-12-07T09:06:12;6.60;99.90
54168;DHT22;40072;50.958;3.592;2022-12-07T09:08:41;6.50;99.90
54168;DHT22;40072;50.958;3.592;2022-12-07T09:11:07;6.60;99.90
54168;DHT22;40072;50.958;3.592;2022-12-07T09:13:33;6.40;99.90
54168;DHT22;40072;50.958;3.592;2022-12-07T09:15:59;6.20;99.90
54168;DHT22;40072;50.958;3.592;2022-12-07T09:18:24;5.90;99.90
54168;DHT22;40072;50.958;3.592;2022-12-07T09:20:50;5.80;99.90
54168;DHT22;40072;50.958;3.592;2022-12-07T09:23:16;6.00;99.90
54168;DHT22;40072;50.958;3.592;2022-12-07T09:25:42;6.00;99.90
54168;DHT22;40072;50.958;3.592;2022-12-07T09:28:08;6.10;99.90
54168;DHT22;40072;50.958;3.592;2022-12-07T09:30:34;6.10;99.90
54168;DHT22;40072;50.958;3.592;2022-12-07T09:33:00;6.00;99.90
54168;DHT22;40072;50.958;3.592;2022-12-07T09:35:26;6.10;99.90
54168;DHT22;40072;50.958;3.592;2022-12-07T09:37:52;6.00;99.90
54168;DHT22;40072;50.958;3.592;2022-12-07T09:40:20;6.30;99.90
54168;DHT22;40072;50.958;3.592;2022-12-07T09:42:50;7.50;99.90
54168;DHT22;40072;50.958;3.592;2022-12-07T09:45:23;8.20;99.90
54168;DHT22;40072;50.958;3.592;2022-12-07T09:47:50;9.80;99.90
54168;DHT22;40072;50.958;3.592;2022-12-07T09:50:21;11.80;99.90
54168;DHT22;40072;50.958;3.592;2022-12-07T09:52:49;12.50;99.90
54168;DHT22;40072;50.958;3.592;2022-12-07T09:55:20;12.40;99.90
54168;DHT22;40072;50.958;3.592;2022-12-07T09:57:48;12.90;99.90
54168;DHT22;40072;50.958;3.592;2022-12-07T10:00:19;13.60;99.90
54168;DHT22;40072;50.958;3.592;2022-12-07T10:02:57;13.30;99.90
54168;DHT22;40072;50.958;3.592;2022-12-07T10:05:30;12.60;99.90
54168;DHT22;40072;50.958;3.592;2022-12-07T10:07:56;12.20;99.90
54168;DHT22;40072;50.958;3.592;2022-12-07T10:10:29;11.80;99.90
54168;DHT22;40072;50.958;3.592;2022-12-07T10:15:56;10.90;99.90
54168;DHT22;40072;50.958;3.592;2022-12-07T10:18:36;10.40;99.90
54168;DHT22;40072;50.958;3.592;2022-12-07T10:23:39;9.50;99.90
54168;DHT22;40072;50.958;3.592;2022-12-07T10:28:54;9.20;99.90
54168;DHT22;40072;50.958;3.592;2022-12-07T10:31:22;9.70;99.90
54168;DHT22;40072;50.958;3.592;2022-12-07T10:33:51;10.30;99.90
54168;DHT22;40072;50.958;3.592;2022-12-07T10:38:47;10.00;99.90
54168;DHT22;40072;50.958;3.592;2022-12-07T10:41:13;9.80;99.90
54168;DHT22;40072;50.958;3.592;2022-12-07T10:43:50;9.00;99.90
54168;DHT22;40072;50.958;3.592;2022-12-07T10:57:00;7.10;99.90
54168;DHT22;40072;50.958;3.592;2022-12-07T10:59:41;7.10;99.90
54168;DHT22;40072;50.958;3.592;2022-12-07T11:02:17;7.20;99.90
54168;DHT22;40072;50.958;3.592;2022-12-07T11:07:52;7.30;99.90
54168;DHT22;40072;50.958;3.592;2022-12-07T11:15:32;7.60;99.90
54168;DHT22;40072;50.958;3.592;2022-12-07T11:18:08;7.70;99.90
54168;DHT22;40072;50.958;3.592;2022-12-07T11:31:37;8.10;99.90
54168;DHT22;40072;50.958;3.592;2022-12-07T11:34:08;8.20;99.90
54168;DHT22;40072;50.958;3.592;2022-12-07T11:36:44;7.90;99.90
54168;DHT22;40072;50.958;3.592;2022-12-07T11:39:56;8.00;99.90
54168;DHT22;40072;50.958;3.592;2022-12-07T11:42:25;8.00;99.90
54168;DHT22;40072;50.958;3.592;2022-12-07T11:56:37;8.20;99.90
54168;DHT22;40072;50.958;3.592;2022-12-07T12:03:52;8.80;99.90
54168;DHT22;40072;50.958;3.592;2022-12-07T12:06:19;8.80;99.90
54168;DHT22;40072;50.958;3.592;2022-12-07T12:09:01;9.00;99.90
54168;DHT22;40072;50.958;3.592;2022-12-07T12:20:22;7.90;99.90
54168;DHT22;40072;50.958;3.592;2022-12-07T12:25:27;7.60;99.90
54168;DHT22;40072;50.958;3.592;2022-12-07T12:27:57;7.60;99.90
54168;DHT22;40072;50.958;3.592;2022-12-07T12:30:38;7.50;99.90
54168;DHT22;40072;50.958;3.592;2022-12-07T12:35:42;7.50;99.90
54168;DHT22;40072;50.958;3.592;2022-12-07T12:38:27;7.50;99.90
54168;DHT22;40072;50.958;3.592;2022-12-07T12:40:55;7.50;99.90
54168;DHT22;40072;50.958;3.592;2022-12-07T12:43:51;7.00;99.90
54168;DHT22;40072;50.958;3.592;2022-12-07T12:51:56;6.20;99.90
54168;DHT22;40072;50.958;3.592;2022-12-07T12:54:31;6.10;99.90
54168;DHT22;40072;50.958;3.592;2022-12-07T12:57:30;6.20;99.90
54168;DHT22;40072;50.958;3.592;2022-12-07T12:59:58;6.50;99.90
54168;DHT22;40072;50.958;3.592;2022-12-07T13:02:55;6.50;99.90
54168;DHT22;40072;50.958;3.592;2022-12-07T13:05:29;6.70;99.90
54168;DHT22;40072;50.958;3.592;2022-12-07T13:07:57;6.90;99.90
54168;DHT22;40072;50.958;3.592;2022-12-07T13:15:40;7.50;99.90
54168;DHT22;40072;50.958;3.592;2022-12-07T13:18:44;7.60;99.90
54168;DHT22;40072;50.958;3.592;2022-12-07T13:28:33;9.80;99.90
54168;DHT22;40072;50.958;3.592;2022-12-07T13:31:10;11.00;99.90
54168;DHT22;40072;50.958;3.592;2022-12-07T13:33:37;11.30;99.90
54168;DHT22;40072;50.958;3.592;2022-12-07T13:36:02;12.20;99.90
54168;DHT22;40072;50.958;3.592;2022-12-07T13:38:31;12.90;99.90
54168;DHT22;40072;50.958;3.592;2022-12-07T13:41:10;13.30;99.90
54168;DHT22;40072;50.958;3.592;2022-12-07T13:44:07;13.80;99.90
54168;DHT22;40072;50.958;3.592;2022-12-07T13:49:28;13.10;99.90
54168;DHT22;40072;50.958;3.592;2022-12-07T13:52:06;12.90;99.90
54168;DHT22;40072;50.958;3.592;2022-12-07T13:54:32;12.80;99.90
54168;DHT22;40072;50.958;3.592;2022-12-07T13:56:58;11.80;99.90
54168;DHT22;40072;50.958;3.592;2022-12-07T13:59:25;10.90;99.90
54168;DHT22;40072;50.958;3.592;2022-12-07T14:01:52;10.30;99.90
54168;DHT22;40072;50.958;3.592;2022-12-07T14:04:35;9.70;99.90
54168;DHT22;40072;50.958;3.592;2022-12-07T14:09:54;8.60;99.90
54168;DHT22;40072;50.958;3.592;2022-12-07T14:12:20;8.30;99.90
54168;DHT22;40072;50.958;3.592;2022-12-07T14:14:49;8.60;99.90
54168;DHT22;40072;50.958;3.592;2022-12-07T14:17:20;9.20;99.90
54168;DHT22;40072;50.958;3.592;2022-12-07T14:19:52;9.40;99.90
54168;DHT22;40072;50.958;3.592;2022-12-07T14:22:27;9.90;99.90
54168;DHT22;40072;50.958;3.592;2022-12-07T14:27:33;9.30;99.90
54168;DHT22;40072;50.958;3.592;2022-12-07T14:30:01;9.20;99.90
54168;DHT22;40072;50.958;3.592;2022-12-07T14:32:28;8.70;99.90
54168;DHT22;40072;50.958;3.592;2022-12-07T14:37:30;8.10;99.90
54168;DHT22;40072;50.958;3.592;2022-12-07T14:39:56;8.00;99.90
54168;DHT22;40072;50.958;3.592;2022-12-07T14:42:24;7.50;99.90
54168;DHT22;40072;50.958;3.592;2022-12-07T14:44:50;7.30;99.90
54168;DHT22;40072;50.958;3.592;2022-12-07T14:47:16;7.20;99.90
54168;DHT22;40072;50.958;3.592;2022-12-07T14:49:41;6.90;99.90
54168;DHT22;40072;50.958;3.592;2022-12-07T14:52:14;6.80;99.90
54168;DHT22;40072;50.958;3.592;2022-12-07T14:54:41;6.70;99.90
54168;DHT22;40072;50.958;3.592;2022-12-07T14:57:09;6.70;99.90
54168;DHT22;40072;50.958;3.592;2022-12-07T14:59:37;6.60;99.90
54168;DHT22;40072;50.958;3.592;2022-12-07T15:02:03;6.50;99.90
54168;DHT22;40072;50.958;3.592;2022-12-07T15:04:28;6.60;99.90
54168;DHT22;40072;50.958;3.592;2022-12-07T15:07:02;6.50;99.90
54168;DHT22;40072;50.958;3.592;2022-12-07T15:09:28;6.60;99.90
54168;DHT22;40072;50.958;3.592;2022-12-07T15:11:54;6.60;99.90
54168;DHT22;40072;50.958;3.592;2022-12-07T15:14:19;6.50;99.90
54168;DHT22;40072;50.958;3.592;2022-12-07T15:16:45;6.50;99.90
54168;DHT22;40072;50.958;3.592;2022-12-07T15:19:19;6.40;99.90
54168;DHT22;40072;50.958;3.592;2022-12-07T15:21:45;6.50;99.90
54168;DHT22;40072;50.958;3.592;2022-12-07T15:24:12;6.50;99.90
54168;DHT22;40072;50.958;3.592;2022-12-07T15:26:38;6.40;99.90
54168;DHT22;40072;50.958;3.592;2022-12-07T15:29:04;6.20;99.90
54168;DHT22;40072;50.958;3.592;2022-12-07T15:31:30;6.20;99.90
54168;DHT22;40072;50.958;3.592;2022-12-07T15:33:56;6.20;99.90
54168;DHT22;40072;50.958;3.592;2022-12-07T15:36:24;6.00;99.90
54168;DHT22;40072;50.958;3.592;2022-12-07T15:38:50;6.00;99.90
54168;DHT22;40072;50.958;3.592;2022-12-07T15:41:17;6.00;99.90
54168;DHT22;40072;50.958;3.592;2022-12-07T15:43:43;6.00;99.90
54168;DHT22;40072;50.958;3.592;2022-12-07T15:46:35;6.00;99.90
54168;DHT22;40072;50.958;3.592;2022-12-07T15:49:02;5.90;99.90
54168;DHT22;40072;50.958;3.592;2022-12-07T15:51:27;6.00;99.90
54168;DHT22;40072;50.958;3.592;2022-12-07T15:53:54;5.80;99.90
54168;DHT22;40072;50.958;3.592;2022-12-07T15:56:20;5.70;99.90
54168;DHT22;40072;50.958;3.592;2022-12-07T15:58:46;5.70;99.90
54168;DHT22;40072;50.958;3.592;2022-12-07T16:01:14;5.50;99.90
54168;DHT22;40072;50.958;3.592;2022-12-07T16:03:40;5.60;99.90
54168;DHT22;40072;50.958;3.592;2022-12-07T16:06:06;5.60;99.90
54168;DHT22;40072;50.958;3.592;2022-12-07T16:08:32;5.60;99.90
54168;DHT22;40072;50.958;3.592;2022-12-07T16:10:58;5.50;99.90
54168;DHT22;40072;50.958;3.592;2022-12-07T16:13:24;5.50;99.90
54168;DHT22;40072;50.958;3.592;2022-12-07T16:15:50;5.50;99.90
54168;DHT22;40072;50.958;3.592;2022-12-07T16:18:16;5.50;99.90
54168;DHT22;40072;50.958;3.592;2022-12-07T16:20:41;5.60;99.90
54168;DHT22;40072;50.958;3.592;2022-12-07T16:23:07;5.60;99.90
54168;DHT22;40072;50.958;3.592;2022-12-07T16:25:33;5.60;99.90
54168;DHT22;40072;50.958;3.592;2022-12-07T16:27:59;5.50;99.90
54168;DHT22;40072;50.958;3.592;2022-12-07T16:30:25;5.40;99.90
54168;DHT22;40072;50.958;3.592;2022-12-07T16:32:51;5.40;99.90
54168;DHT22;40072;50.958;3.592;2022-12-07T16:35:17;5.40;99.90
54168;DHT22;40072;50.958;3.592;2022-12-07T16:37:42;5.50;99.90
54168;DHT22;40072;50.958;3.592;2022-12-07T16:40:08;5.60;99.90
54168;DHT22;40072;50.958;3.592;2022-12-07T16:42:35;5.60;99.90
54168;DHT22;40072;50.958;3.592;2022-12-07T16:45:02;5.60;99.90
54168;DHT22;40072;50.958;3.592;2022-12-07T16:47:28;5.50;99.90
54168;DHT22;40072;50.958;3.592;2022-12-07T16:49:53;5.40;99.90
54168;DHT22;40072;50.958;3.592;2022-12-07T16:52:20;5.30;99.90
54168;DHT22;40072;50.958;3.592;2022-12-07T16:54:46;5.20;99.90
54168;DHT22;40072;50.958;3.592;2022-12-07T16:57:12;5.10;99.90
54168;DHT22;40072;50.958;3.592;2022-12-07T16:59:38;5.10;99.90
54168;DHT22;40072;50.958;3.592;2022-12-07T17:02:03;5.20;99.90
54168;DHT22;40072;50.958;3.592;2022-12-07T17:04:29;5.10;99.90
54168;DHT22;40072;50.958;3.592;2022-12-07T17:06:55;5.00;99.90
54168;DHT22;40072;50.958;3.592;2022-12-07T17:09:21;5.00;99.90
54168;DHT22;40072;50.958;3.592;2022-12-07T17:11:46;4.90;99.90
54168;DHT22;40072;50.958;3.592;2022-12-07T17:14:12;4.90;99.90
54168;DHT22;40072;50.958;3.592;2022-12-07T17:16:56;4.90;99.90
54168;DHT22;40072;50.958;3.592;2022-12-07T17:19:21;4.90;99.90
54168;DHT22;40072;50.958;3.592;2022-12-07T17:21:47;4.80;99.90
54168;DHT22;40072;50.958;3.592;2022-12-07T17:24:15;4.90;99.90
54168;DHT22;40072;50.958;3.592;2022-12-07T17:26:41;4.90;99.90
54168;DHT22;40072;50.958;3.592;2022-12-07T17:29:08;4.90;99.90
54168;DHT22;40072;50.958;3.592;2022-12-07T17:31:36;4.90;99.90
54168;DHT22;40072;50.958;3.592;2022-12-07T17:34:01;5.00;99.90
54168;DHT22;40072;50.958;3.592;2022-12-07T17:36:29;4.80;99.90
54168;DHT22;40072;50.958;3.592;2022-12-07T17:38:55;4.70;99.90
54168;DHT22;40072;50.958;3.592;2022-12-07T17:41:23;4.70;99.90
54168;DHT22;40072;50.958;3.592;2022-12-07T17:44:10;4.70;99.90
54168;DHT22;40072;50.958;3.592;2022-12-07T17:46:37;4.80;99.90
54168;DHT22;40072;50.958;3.592;2022-12-07T17:49:03;4.80;99.90
54168;DHT22;40072;50.958;3.592;2022-12-07T17:51:29;4.70;99.90
54168;DHT22;40072;50.958;3.592;2022-12-07T17:54:14;4.80;99.90
54168;DHT22;40072;50.958;3.592;2022-12-07T17:56:40;4.70;99.90
54168;DHT22;40072;50.958;3.592;2022-12-07T17:59:06;4.70;99.90
54168;DHT22;40072;50.958;3.592;2022-12-07T18:01:32;4.80;99.90
54168;DHT22;40072;50.958;3.592;2022-12-07T18:03:58;4.80;99.90